Overview Statistics Trail Chart Weather Telemetry Raw packets
 

This is the latest recevied weather packets stored in our database for station/object K4XP. If no packets are shown the sender has not sent any weather packets the latest 10 day(s).

<< 77 78 79 80 81 82 83 >>
Time Temp. Humidity Pressure Rain* Wind** Luminosity Snow
1788033341 30.56° C 67% 1020.6 hPa 0 mm - - -
1788033040 30.56° C 64% 1020.5 hPa 0 mm - - -
1788032746 30.56° C 66% 1020.5 hPa 0 mm - - -
1788032418 30.56° C 68% 1020.6 hPa 0 mm - - -
1788032128 30° C 68% 1020.7 hPa 0 mm - - -
1788031827 30° C 69% 1020.7 hPa 0 mm - - -
1788031537 30° C 70% 1020.8 hPa 0 mm - - -
1788031223 29.44° C 70% 1020.8 hPa 0 mm - - -
1788030934 28.89° C 73% 1021 hPa 0 mm - - -
1788030628 28.89° C 72% 1021.1 hPa 0 mm - - -
1788030327 28.89° C 72% 1021.3 hPa 0 mm - - -
1788030030 28.89° C 71% 1021.3 hPa 0 mm - - -
1788029747 29.44° C 72% 1021.4 hPa 0 mm - - -
1788029419 29.44° C 71% 1021.5 hPa 0 mm - - -
1788029138 29.44° C 71% 1021.7 hPa 0 mm - - -
1788028828 29.44° C 70% 1021.7 hPa 0 mm - - -
1788028536 29.44° C 71% 1021.8 hPa 0 mm - - -
1788028228 28.89° C 72% 1021.8 hPa 0 mm - - -
1788027928 28.89° C 71% 1021.8 hPa 0 mm - - -
1788027646 28.89° C 71% 1022 hPa 0 mm - - -
1788027337 28.89° C 73% 1022 hPa 0 mm - - -
1788027036 28.89° C 73% 1022 hPa 0 mm - - -
1788026734 28.33° C 72% 1022 hPa 0 mm - - -
1788026427 28.33° C 77% 1022.2 hPa 0 mm - - -
1788026124 27.78° C 75% 1022.1 hPa 0 mm - - -

* Rain latest hour (hover to see other rain measurements)
** Current wind speed in m/s (hover to see current wind gust speed)